Time;durP1;ratioP1;P1;durP2;ratioP2;P2;SDS_P1;SDS_P2;PMS_P1;PMS_P2;Temp;Humidity;BMP_temperature;BMP_pressure;BME280_temperature;BME280_humidity;BME280_pressure;Samples;Min_cycle;Max_cycle;Signal;HPM_P1;HPM_P2
2023/07/02 00:00:51;;;;;;;10.82;5.57;;;;;;;14.63;100.00;99863.00;6039366;28;20035;-63
2023/07/02 00:03:46;;;;;;;9.32;5.13;;;;;;;14.69;100.00;99895.09;6050011;28;20033;-64
2023/07/02 00:06:43;;;;;;;12.07;5.53;;;;;;;14.71;100.00;99886.88;6039165;28;20152;-64
2023/07/02 00:09:39;;;;;;;12.73;5.85;;;;;;;14.71;100.00;99885.06;6051416;28;20456;-64
2023/07/02 00:12:34;;;;;;;10.52;5.35;;;;;;;14.71;100.00;99884.22;6042704;28;20022;-64
2023/07/02 00:15:30;;;;;;;9.32;5.15;;;;;;;14.76;100.00;99895.97;6050871;28;20034;-64
2023/07/02 00:18:33;;;;;;;11.23;4.73;;;;;;;14.79;100.00;99892.09;6051337;28;20038;-64
2023/07/02 00:21:29;;;;;;;10.48;4.22;;;;;;;14.74;100.00;99874.00;6051605;28;20100;-64
2023/07/02 00:24:24;;;;;;;8.98;4.18;;;;;;;14.76;100.00;99877.28;6050639;28;20034;-64
2023/07/02 00:27:19;;;;;;;8.37;4.30;;;;;;;14.78;100.00;99872.56;6043924;28;20105;-64
2023/07/02 00:30:15;;;;;;;9.10;4.20;;;;;;;14.86;100.00;99887.66;6045608;28;20026;-64
2023/07/02 00:33:10;;;;;;;8.03;3.80;;;;;;;14.84;100.00;99889.66;6050969;28;20033;-64
2023/07/02 00:36:05;;;;;;;8.97;3.73;;;;;;;14.79;100.00;99881.41;6034425;28;20066;-64
2023/07/02 00:39:01;;;;;;;12.10;4.03;;;;;;;14.83;100.00;99893.38;6050773;28;20358;-64
2023/07/02 00:42:01;;;;;;;6.73;3.50;;;;;;;14.81;100.00;99884.75;6051900;28;20331;-64
2023/07/02 00:45:02;;;;;;;;;;;;;;;14.86;100.00;99892.97;6048323;28;20060;-64
2023/07/02 00:47:58;;;;;;;6.75;3.17;;;;;;;14.86;100.00;99892.97;6044175;28;19912;-64
2023/07/02 00:50:53;;;;;;;8.93;4.43;;;;;;;14.85;100.00;99875.31;6065985;28;20378;-64
2023/07/02 00:53:50;;;;;;;7.70;2.90;;;;;;;14.85;100.00;99886.81;6043977;28;20034;-65
2023/07/02 00:56:45;;;;;;;9.93;3.08;;;;;;;14.74;100.00;99873.16;6035164;28;20454;-64
2023/07/02 00:59:41;;;;;;;8.30;3.15;;;;;;;14.83;100.00;99894.19;6049412;28;20030;-64
2023/07/02 01:02:38;;;;;;;5.45;2.97;;;;;;;14.82;100.00;99902.38;6039979;28;20045;-65
2023/07/02 01:05:36;;;;;;;5.60;2.83;;;;;;;14.76;100.00;99897.81;6035086;28;20048;-64
2023/07/02 01:08:32;;;;;;;11.50;3.15;;;;;;;14.68;100.00;99890.78;6049936;28;20034;-64
2023/07/02 01:11:32;;;;;;;8.65;3.30;;;;;;;14.55;100.00;99884.50;6045254;28;20038;-64
2023/07/02 01:14:52;;;;;;;7.57;2.95;;;;;;;14.57;100.00;99893.13;6048020;28;20045;-64
2023/07/02 01:17:48;;;;;;;;;;;;;;;14.46;100.00;99901.66;6058967;28;20366;-64
2023/07/02 01:20:44;;;;;;;4.72;2.50;;;;;;;14.42;100.00;99905.72;6036944;28;19932;-65
2023/07/02 01:23:39;;;;;;;8.38;3.13;;;;;;;14.33;100.00;99891.69;6048119;28;20034;-64
2023/07/02 01:26:36;;;;;;;8.23;2.60;;;;;;;14.17;100.00;99882.06;6050018;28;20033;-64
2023/07/02 01:29:31;;;;;;;5.28;2.60;;;;;;;14.19;100.00;99888.03;6036109;28;20058;-64
2023/07/02 01:32:27;;;;;;;5.97;2.83;;;;;;;14.09;100.00;99876.84;6022650;28;20413;-65
2023/07/02 01:35:22;;;;;;;4.60;2.38;;;;;;;14.14;100.00;99897.59;6046624;28;20257;-65
2023/07/02 01:38:17;;;;;;;5.90;2.97;;;;;;;14.08;100.00;99880.50;6049685;28;20120;-64
2023/07/02 01:41:13;;;;;;;7.93;2.87;;;;;;;14.03;100.00;99876.75;6039747;28;20361;-65
2023/07/02 01:44:08;;;;;;;5.43;2.80;;;;;;;14.05;100.00;99886.22;6049094;28;20388;-65
2023/07/02 01:47:04;;;;;;;6.07;2.33;;;;;;;14.12;100.00;99884.47;6049913;28;20037;-65
2023/07/02 01:49:59;;;;;;;6.32;2.72;;;;;;;14.02;100.00;99872.47;6045869;28;20046;-65
2023/07/02 01:52:55;;;;;;;6.63;2.77;;;;;;;13.95;100.00;99877.72;6044107;28;20040;-65
2023/07/02 01:55:50;;;;;;;10.70;2.97;;;;;;;14.01;100.00;99900.97;6049103;28;20029;-64
2023/07/02 01:58:46;;;;;;;5.50;2.58;;;;;;;13.92;100.00;99893.25;6049624;28;20038;-65
2023/07/02 02:01:41;;;;;;;5.32;2.50;;;;;;;13.98;100.00;99904.00;6031323;28;20109;-66
2023/07/02 02:04:36;;;;;;;9.80;2.70;;;;;;;13.97;100.00;99907.66;6040977;28;20057;-65
2023/07/02 02:07:32;;;;;;;8.60;2.70;;;;;;;13.93;100.00;99906.41;6043846;28;20033;-64
2023/07/02 02:10:28;;;;;;;7.28;3.00;;;;;;;13.87;100.00;99920.47;6037691;28;20023;-65
2023/07/02 02:13:23;;;;;;;8.13;3.25;;;;;;;13.70;100.00;99900.38;6040776;28;20052;-64
2023/07/02 02:16:19;;;;;;;8.90;3.23;;;;;;;13.75;100.00;99916.66;6049465;28;20041;-64
2023/07/02 02:19:15;;;;;;;8.50;3.60;;;;;;;13.64;100.00;99917.91;6049237;28;20029;-64
2023/07/02 02:22:10;;;;;;;8.52;3.55;;;;;;;13.79;100.00;99928.56;6050029;28;20078;-64
2023/07/02 02:25:06;;;;;;;8.53;4.13;;;;;;;13.66;100.00;99909.75;6045986;28;20018;-64
2023/07/02 02:28:01;;;;;;;5.30;3.55;;;;;;;13.73;100.00;99913.31;6053892;28;20484;-65
2023/07/02 02:30:56;;;;;;;5.60;3.40;;;;;;;13.86;100.00;99916.13;6039372;28;20113;-67
2023/07/02 02:33:52;;;;;;;8.57;3.33;;;;;;;13.94;100.00;99924.03;6048985;28;20088;-66
2023/07/02 02:36:47;;;;;;;9.93;3.57;;;;;;;14.04;100.00;99918.41;6053773;28;20265;-65
2023/07/02 02:39:42;;;;;;;6.77;2.87;;;;;;;14.00;100.00;99914.47;6053819;28;20022;-64
2023/07/02 02:42:38;;;;;;;7.13;3.20;;;;;;;14.09;100.00;99927.50;6040536;28;20038;-65
2023/07/02 02:45:34;;;;;;;7.93;3.60;;;;;;;14.09;100.00;99908.84;6053019;28;20517;-64
2023/07/02 02:48:29;;;;;;;6.00;3.30;;;;;;;14.12;100.00;99913.81;6040570;28;20061;-65
2023/07/02 02:51:24;;;;;;;7.97;2.97;;;;;;;14.22;100.00;99927.66;6053362;28;20022;-65
2023/07/02 02:54:20;;;;;;;5.70;3.70;;;;;;;14.20;100.00;99908.34;6052721;28;20060;-65
2023/07/02 02:57:15;;;;;;;10.30;3.27;;;;;;;14.33;100.00;99921.00;6053189;28;20152;-63
2023/07/02 03:00:11;;;;;;;9.25;3.38;;;;;;;14.36;100.00;99917.16;6053575;28;20029;-64
2023/07/02 03:03:06;;;;;;;7.95;3.28;;;;;;;14.28;100.00;99908.22;6053081;28;20149;-64
2023/07/02 03:06:02;;;;;;;6.57;3.40;;;;;;;14.34;100.00;99914.69;6039221;28;20473;-64
2023/07/02 03:08:57;;;;;;;6.03;3.40;;;;;;;14.41;100.00;99922.72;6039823;28;20028;-64
2023/07/02 03:11:52;;;;;;;6.97;3.20;;;;;;;14.32;100.00;99904.19;6041161;28;20030;-64
2023/07/02 03:14:52;;;;;;;6.07;3.23;;;;;;;14.39;100.00;99906.09;6052488;28;20036;-64
2023/07/02 03:17:47;;;;;;;9.48;3.47;;;;;;;14.42;100.00;99911.88;6028498;28;20022;-64
2023/07/02 03:20:43;;;;;;;7.43;3.80;;;;;;;14.41;100.00;99904.06;6052841;28;20358;-65
2023/07/02 03:23:38;;;;;;;6.17;3.80;;;;;;;14.40;100.00;99897.09;6052379;28;20061;-65
2023/07/02 03:26:33;;;;;;;6.70;3.63;;;;;;;14.44;100.00;99911.69;6052392;28;20041;-65
2023/07/02 03:29:29;;;;;;;8.33;3.97;;;;;;;14.43;100.00;99902.84;6052552;28;20029;-64
2023/07/02 03:32:24;;;;;;;10.10;5.63;;;;;;;14.52;100.00;99922.22;6032297;28;20457;-64
2023/07/02 03:35:20;;;;;;;10.45;4.22;;;;;;;14.46;100.00;99901.66;6051846;28;20030;-64
2023/07/02 03:38:15;;;;;;;7.33;4.37;;;;;;;14.44;100.00;99898.34;6052365;28;20477;-64
2023/07/02 03:41:10;;;;;;;9.25;4.47;;;;;;;14.53;100.00;99918.56;6051562;28;20280;-65
2023/07/02 03:44:06;;;;;;;7.17;3.67;;;;;;;14.52;100.00;99900.88;6051743;28;20022;-64
2023/07/02 03:47:01;;;;;;;9.95;3.90;;;;;;;14.55;100.00;99921.84;6052083;28;20034;-64
2023/07/02 03:49:57;;;;;;;10.13;4.43;;;;;;;14.44;100.00;99898.34;6033135;28;20030;-64
2023/07/02 03:52:52;;;;;;;7.50;4.37;;;;;;;14.46;100.00;99913.16;6039923;28;20475;-64
2023/07/02 03:55:47;;;;;;;8.90;4.10;;;;;;;14.40;100.00;99907.75;6044075;28;20473;-64
2023/07/02 03:58:43;;;;;;;8.50;4.18;;;;;;;14.45;100.00;99911.50;6052212;28;20022;-64
2023/07/02 04:01:38;;;;;;;7.82;4.65;;;;;;;14.52;100.00;99917.72;6052032;28;20105;-64
2023/07/02 04:04:33;;;;;;;12.10;4.43;;;;;;;14.58;100.00;99916.13;6030747;28;20034;-65
2023/07/02 04:07:30;;;;;;;6.80;4.00;;;;;;;14.66;100.00;99934.69;6046257;28;20052;-64
2023/07/02 04:10:25;;;;;;;9.90;4.97;;;;;;;14.62;100.00;99909.41;6051507;28;20598;-65
2023/07/02 04:13:20;;;;;;;9.13;4.77;;;;;;;14.70;100.00;99930.63;6043616;28;20033;-64
2023/07/02 04:16:15;;;;;;;7.23;4.03;;;;;;;14.73;100.00;99925.72;6051878;28;20033;-64
2023/07/02 04:19:11;;;;;;;14.53;4.77;;;;;;;14.73;100.00;99935.59;6051733;28;20033;-64
2023/07/02 04:22:06;;;;;;;8.70;4.53;;;;;;;14.68;100.00;99921.97;6051564;28;20545;-64
2023/07/02 04:25:01;;;;;;;7.37;4.30;;;;;;;14.72;100.00;99939.25;6047776;28;20073;-64
2023/07/02 04:27:58;;;;;;;11.57;4.70;;;;;;;14.69;100.00;99936.97;6051378;28;20022;-64
2023/07/02 04:30:53;;;;;;;9.75;4.57;;;;;;;14.65;100.00;99943.69;6045955;28;20034;-64
2023/07/02 04:33:49;;;;;;;11.47;5.40;;;;;;;14.67;100.00;99952.34;6031393;28;20033;-64
2023/07/02 04:36:44;;;;;;;8.77;4.70;;;;;;;14.64;100.00;99958.06;6045462;28;20180;-64
2023/07/02 04:39:39;;;;;;;9.40;5.70;;;;;;;14.52;100.00;99936.41;6050812;28;20034;-64
2023/07/02 04:42:39;;;;;;;10.43;5.90;;;;;;;14.47;100.00;99937.97;6034090;28;20420;-64
2023/07/02 04:45:36;;;;;;;10.40;5.78;;;;;;;14.47;100.00;99940.66;6050138;28;20746;-63
2023/07/02 04:48:31;;;;;;;14.18;6.03;;;;;;;14.47;100.00;99943.31;6050749;28;20034;-63
2023/07/02 04:51:26;;;;;;;15.47;6.80;;;;;;;14.53;100.00;99950.56;6050628;28;20405;-63
2023/07/02 04:54:22;;;;;;;14.97;7.20;;;;;;;14.42;100.00;99935.06;6050420;28;20030;-63
2023/07/02 04:57:17;;;;;;;12.57;6.05;;;;;;;14.57;100.00;99959.84;6050651;28;20033;-63
2023/07/02 05:00:14;;;;;;;10.33;5.77;;;;;;;14.53;100.00;99953.25;6050750;28;20080;-63
2023/07/02 05:03:09;;;;;;;8.95;5.25;;;;;;;14.39;100.00;99938.09;6050634;28;20052;-63
2023/07/02 05:06:04;;;;;;;10.17;5.37;;;;;;;14.44;100.00;99941.03;6036705;28;20477;-63
2023/07/02 05:09:00;;;;;;;11.83;5.77;;;;;;;14.43;100.00;99950.06;6050493;28;20026;-64
2023/07/02 05:11:55;;;;;;;10.33;4.90;;;;;;;14.46;100.00;99933.69;6042857;28;20105;-63
2023/07/02 05:14:50;;;;;;;12.60;5.80;;;;;;;14.39;100.00;99941.59;6040370;28;20103;-64
2023/07/02 05:17:45;;;;;;;9.17;4.60;;;;;;;14.44;100.00;99941.03;6050505;28;20444;-63
2023/07/02 05:20:41;;;;;;;11.07;6.73;;;;;;;14.49;100.00;99955.44;6050218;28;20044;-63
2023/07/02 05:23:36;;;;;;;10.03;4.43;;;;;;;14.37;100.00;99946.31;6049765;28;20033;-66
2023/07/02 05:26:32;;;;;;;10.38;4.60;;;;;;;14.32;100.00;99957.53;6050250;28;20261;-63
2023/07/02 05:29:28;;;;;;;11.27;4.75;;;;;;;14.27;100.00;99959.91;6046524;28;20459;-64
2023/07/02 05:32:23;;;;;;;9.27;4.10;;;;;;;14.13;100.00;99958.09;6042926;28;20029;-63
2023/07/02 05:35:18;;;;;;;13.02;5.18;;;;;;;14.08;100.00;99957.84;6049237;28;20026;-63
2023/07/02 05:38:14;;;;;;;11.00;5.07;;;;;;;14.15;100.00;99942.75;6046306;28;20056;-63
2023/07/02 05:41:09;;;;;;;11.55;4.82;;;;;;;14.23;100.00;99971.97;6039868;28;20044;-64
2023/07/02 05:44:04;;;;;;;13.90;5.27;;;;;;;14.26;100.00;99965.44;6049395;28;20025;-65
2023/07/02 05:47:00;;;;;;;9.93;5.53;;;;;;;14.40;100.00;99977.94;6049665;28;20049;-63
2023/07/02 05:49:55;;;;;;;11.40;5.83;;;;;;;14.29;100.00;99973.88;6049514;28;20042;-66
2023/07/02 05:52:50;;;;;;;15.48;5.32;;;;;;;14.25;100.00;99985.13;6034974;28;20049;-64
2023/07/02 05:55:48;;;;;;;12.77;5.13;;;;;;;14.15;100.00;99979.25;6024808;28;20034;-63
2023/07/02 05:58:43;;;;;;;8.82;4.35;;;;;;;14.20;100.00;99993.69;6032035;28;20030;-64
2023/07/02 06:01:38;;;;;;;12.50;4.72;;;;;;;14.23;100.00;99987.16;6042934;28;20785;-64
2023/07/02 06:04:34;;;;;;;10.00;4.23;;;;;;;14.30;100.00;99986.22;6025922;28;20030;-64
2023/07/02 06:07:29;;;;;;;11.53;4.20;;;;;;;14.43;100.00;100006.09;6030350;28;20045;-65
2023/07/02 06:10:24;;;;;;;8.47;4.10;;;;;;;14.41;100.00;100000.94;6028022;28;20065;-66
2023/07/02 06:13:20;;;;;;;11.40;4.50;;;;;;;14.47;100.00;99994.00;6020479;28;20031;-65
2023/07/02 06:16:15;;;;;;;14.03;4.63;;;;;;;14.76;100.00;100010.75;6048850;28;20030;-64
2023/07/02 06:19:10;;;;;;;10.17;3.63;;;;;;;14.79;100.00;100006.88;6032299;28;20042;-65
2023/07/02 06:22:05;;;;;;;13.00;4.38;;;;;;;14.91;100.00;100018.72;6038633;28;20049;-65
2023/07/02 06:25:01;;;;;;;14.93;4.10;;;;;;;15.36;100.00;100017.44;6024438;28;20057;-65
2023/07/02 06:27:58;;;;;;;12.50;4.33;;;;;;;15.76;100.00;100003.34;6023611;28;20034;-65
2023/07/02 06:30:53;;;;;;;13.27;3.55;;;;;;;16.06;99.51;99986.03;6028802;28;20513;-65
2023/07/02 06:33:48;;;;;;;13.73;3.75;;;;;;;16.27;97.20;100000.31;6030640;28;20061;-65
2023/07/02 06:36:44;;;;;;;10.53;4.27;;;;;;;16.51;96.82;100005.97;6033439;28;20045;-65
2023/07/02 06:39:39;;;;;;;14.13;4.23;;;;;;;16.66;93.45;99990.56;6047858;28;20018;-65
2023/07/02 06:42:35;;;;;;;13.27;3.87;;;;;;;16.89;92.60;100000.09;6032589;28;20030;-65
2023/07/02 06:45:31;;;;;;;12.55;3.70;;;;;;;17.37;93.17;99998.88;6029769;28;20657;-65
2023/07/02 06:48:26;;;;;;;8.03;3.83;;;;;;;17.16;91.23;100004.44;6047110;28;20041;-65
2023/07/02 06:51:21;;;;;;;11.37;4.27;;;;;;;17.01;90.68;99998.47;6029167;28;20026;-65
2023/07/02 06:54:17;;;;;;;13.18;4.60;;;;;;;17.08;92.42;99999.28;6037279;28;20026;-65
2023/07/02 06:57:13;;;;;;;9.83;4.23;;;;;;;17.45;90.21;100011.25;6049240;28;20038;-65
2023/07/02 07:00:08;;;;;;;11.48;4.13;;;;;;;17.26;90.16;99999.47;6036437;28;20118;-66
2023/07/02 07:03:04;;;;;;;14.75;4.75;;;;;;;17.57;89.64;100026.53;6032704;28;20025;-65
2023/07/02 07:05:59;;;;;;;13.10;4.10;;;;;;;17.61;88.62;100027.75;6032961;28;20444;-65
2023/07/02 07:08:54;;;;;;;13.13;3.93;;;;;;;17.39;87.64;100020.94;6049166;28;20053;-65
2023/07/02 07:11:50;;;;;;;9.07;3.97;;;;;;;17.72;88.15;100019.06;6025277;28;20420;-65
2023/07/02 07:14:45;;;;;;;9.83;4.00;;;;;;;17.70;87.94;100020.31;6041700;28;20045;-65
2023/07/02 07:17:41;;;;;;;15.27;4.82;;;;;;;18.06;86.04;100033.22;6037688;28;20041;-65
2023/07/02 07:20:36;;;;;;;9.00;4.43;;;;;;;17.85;81.76;100029.75;6038440;28;20395;-65
2023/07/02 07:23:31;;;;;;;14.23;3.97;;;;;;;17.85;80.69;100021.72;6043389;28;20065;-65
2023/07/02 07:26:27;;;;;;;10.27;4.07;;;;;;;18.13;81.36;100026.81;6043436;28;20264;-65
2023/07/02 07:29:22;;;;;;;15.00;4.33;;;;;;;18.28;76.56;100023.88;6038678;28;20043;-65
2023/07/02 07:32:17;;;;;;;16.02;5.05;;;;;;;18.24;77.35;100034.19;6049720;28;20406;-65
2023/07/02 07:35:13;;;;;;;17.57;4.60;;;;;;;18.21;77.50;100028.41;6043229;28;20435;-65
2023/07/02 07:38:08;;;;;;;13.17;4.17;;;;;;;18.54;74.43;100044.41;6052502;28;20041;-65
2023/07/02 07:41:03;;;;;;;12.32;4.30;;;;;;;18.70;69.60;100044.75;6029098;28;20057;-65
2023/07/02 07:43:59;;;;;;;13.47;4.23;;;;;;;18.70;68.27;100060.88;6020546;28;20426;-65
2023/07/02 07:46:58;;;;;;;10.45;4.68;;;;;;;17.91;74.08;100048.75;6030078;28;20378;-65
2023/07/02 07:49:54;;;;;;;17.60;4.05;;;;;;;17.52;77.09;100045.06;6035422;28;20421;-65
2023/07/02 07:52:51;;;;;;;14.65;4.03;;;;;;;17.63;78.71;100051.69;6046233;28;20424;-65
2023/07/02 07:55:46;;;;;;;12.63;4.45;;;;;;;17.94;76.56;100053.72;6044813;28;20424;-65
2023/07/02 07:58:41;;;;;;;10.43;4.43;;;;;;;18.09;74.78;100054.28;6050973;28;20030;-65
2023/07/02 08:01:37;;;;;;;12.55;4.40;;;;;;;18.42;73.19;100058.50;6036042;28;20026;-65
2023/07/02 08:04:32;;;;;;;12.47;4.67;;;;;;;18.89;73.32;100053.72;6035566;28;20035;-65
2023/07/02 08:07:27;;;;;;;9.23;4.80;;;;;;;18.67;69.87;100050.56;6044131;28;20411;-65
2023/07/02 08:10:24;;;;;;;15.00;4.18;;;;;;;18.31;69.36;100082.50;6034381;28;20112;-65
2023/07/02 08:13:20;;;;;;;10.75;4.32;;;;;;;18.91;69.55;100075.88;6032017;28;20029;-65
2023/07/02 08:16:15;;;;;;;18.08;4.53;;;;;;;18.87;65.42;100078.16;6027308;28;20434;-65
2023/07/02 08:19:11;;;;;;;15.57;4.50;;;;;;;18.74;66.02;100083.59;6017457;28;20038;-65
2023/07/02 08:22:06;;;;;;;14.23;4.73;;;;;;;18.34;66.59;100084.78;6045578;28;20025;-65
2023/07/02 08:25:01;;;;;;;10.67;3.87;;;;;;;17.91;67.06;100080.97;6050506;28;20071;-65
2023/07/02 08:27:57;;;;;;;15.37;5.27;;;;;;;18.24;68.38;100095.09;6050892;28;20369;-65
2023/07/02 08:30:52;;;;;;;15.48;4.25;;;;;;;18.38;65.67;100091.34;6051248;28;20018;-65
2023/07/02 08:33:47;;;;;;;13.43;4.43;;;;;;;18.89;64.34;100102.09;6029523;28;20563;-66
2023/07/02 08:36:43;;;;;;;23.57;5.40;;;;;;;18.83;64.29;100094.94;6036522;28;20038;-65
2023/07/02 08:39:39;;;;;;;13.55;4.15;;;;;;;18.19;65.31;100098.44;6034429;28;20030;-65
2023/07/02 08:42:35;;;;;;;16.05;4.82;;;;;;;17.82;66.65;100121.41;6037425;28;20171;-65
2023/07/02 08:45:30;;;;;;;15.63;5.28;;;;;;;17.44;67.23;100116.81;6044455;28;20034;-65
2023/07/02 08:48:26;;;;;;;14.38;4.53;;;;;;;17.37;68.37;100122.16;6041580;28;20038;-65
2023/07/02 08:51:21;;;;;;;14.18;4.28;;;;;;;17.27;69.12;100116.38;6038687;28;20461;-65
2023/07/02 08:54:19;;;;;;;13.20;4.70;;;;;;;17.25;68.66;100129.19;6044303;28;20125;-65
2023/07/02 08:57:15;;;;;;;13.05;4.57;;;;;;;17.14;69.90;100135.13;6029782;28;20072;-65
2023/07/02 09:00:11;;;;;;;16.97;4.80;;;;;;;17.36;69.85;100123.22;6050685;28;20494;-65
2023/07/02 09:03:14;;;;;;;14.18;4.63;;;;;;;17.89;65.91;100115.19;6040968;28;20555;-65
2023/07/02 09:06:10;;;;;;;14.35;4.57;;;;;;;17.96;65.22;100119.53;6034282;28;20033;-65
2023/07/02 09:09:06;;;;;;;13.07;4.03;;;;;;;18.64;63.10;100138.81;6041029;28;20331;-65
2023/07/02 09:12:01;;;;;;;11.20;3.77;;;;;;;19.15;57.70;100122.66;6035818;28;20060;-65
2023/07/02 09:15:00;;;;;;;15.25;4.63;;;;;;;19.20;55.05;100128.19;6038789;28;20034;-65
2023/07/02 09:17:56;;;;;;;17.27;3.90;;;;;;;19.60;56.47;100113.47;6032260;28;20058;-65
2023/07/02 09:20:53;;;;;;;15.47;4.40;;;;;;;19.30;54.12;100115.91;6050133;28;20149;-65
2023/07/02 09:23:48;;;;;;;12.70;4.20;;;;;;;18.47;57.45;100124.16;6036215;28;20152;-65
2023/07/02 09:26:55;;;;;;;13.50;4.47;;;;;;;18.41;57.74;100131.22;6027773;28;20042;-65
2023/07/02 09:29:52;;;;;;;12.30;4.30;;;;;;;18.83;56.41;100138.72;6030367;28;20105;-65
2023/07/02 09:32:47;;;;;;;14.77;4.85;;;;;;;19.07;56.09;100115.66;6045107;28;20026;-65
2023/07/02 09:35:43;;;;;;;12.00;4.43;;;;;;;19.49;52.72;100131.13;6037506;28;20397;-65
2023/07/02 09:38:39;;;;;;;10.63;4.00;;;;;;;19.46;52.53;100114.59;6044189;28;20080;-65
2023/07/02 09:41:35;;;;;;;11.63;4.38;;;;;;;19.54;51.81;100122.44;6040904;28;20113;-65
2023/07/02 09:44:32;;;;;;;13.55;3.72;;;;;;;19.80;51.01;100119.50;6026293;28;20052;-65
2023/07/02 09:47:29;;;;;;;21.77;4.80;;;;;;;19.80;49.38;100138.34;6037120;28;20059;-66
2023/07/02 09:50:24;;;;;;;12.25;4.45;;;;;;;19.84;50.73;100154.88;6037187;28;20022;-65
2023/07/02 09:53:20;;;;;;;16.95;4.55;;;;;;;19.65;51.14;100127.06;6026044;28;20022;-66
2023/07/02 09:56:15;;;;;;;17.50;5.35;;;;;;;19.86;51.25;100134.78;6028710;28;20037;-65
2023/07/02 09:59:11;;;;;;;13.65;4.15;;;;;;;20.13;49.27;100111.97;6064602;28;20113;-65
2023/07/02 10:02:08;;;;;;;14.20;4.47;;;;;;;20.13;48.36;100138.06;6018451;28;20046;-66
2023/07/02 10:05:05;;;;;;;16.15;4.53;;;;;;;19.90;50.01;100127.91;6020816;28;20019;-65
2023/07/02 10:08:14;;;;;;;11.55;4.07;;;;;;;19.34;49.78;100122.53;6031398;28;20060;-66
2023/07/02 10:11:13;;;;;;;13.32;4.30;;;;;;;19.50;49.74;100154.31;6043065;28;20028;-66
2023/07/02 10:14:08;;;;;;;15.43;4.13;;;;;;;19.53;51.00;100136.91;6040658;28;20026;-66
2023/07/02 10:17:03;;;;;;;12.13;4.40;;;;;;;19.52;51.46;100140.63;6027289;28;20103;-66
2023/07/02 10:20:07;;;;;;;13.87;4.67;;;;;;;19.67;50.45;100134.94;6032734;28;20488;-66
2023/07/02 10:23:04;;;;;;;11.75;4.10;;;;;;;19.72;50.26;100140.47;6039931;28;20288;-66
2023/07/02 10:26:16;;;;;;;9.68;4.35;;;;;;;19.63;48.93;100144.47;6042452;28;20042;-66
2023/07/02 10:29:18;;;;;;;18.42;4.55;;;;;;;19.23;50.23;100146.59;6035623;28;20042;-65
2023/07/02 10:32:14;;;;;;;12.93;4.18;;;;;;;19.29;47.95;100143.88;6033932;28;20037;-65
2023/07/02 10:35:16;;;;;;;13.47;4.30;;;;;;;19.76;48.71;100164.03;6025773;28;20049;-66
2023/07/02 10:38:19;;;;;;;12.43;4.40;;;;;;;20.48;46.94;100151.81;6026017;28;20038;-66
2023/07/02 10:41:29;;;;;;;11.10;3.92;;;;;;;20.41;44.79;100148.38;6010634;28;20044;-66
2023/07/02 10:44:24;;;;;;;16.85;4.63;;;;;;;20.04;45.42;100156.34;6042496;28;20057;-66
2023/07/02 10:47:20;;;;;;;12.77;4.00;;;;;;;19.99;46.94;100168.81;6022123;28;20026;-65
2023/07/02 10:50:16;;;;;;;12.63;4.50;;;;;;;19.85;48.63;100173.50;6025781;28;20030;-66
2023/07/02 10:53:16;;;;;;;10.27;3.88;;;;;;;20.29;49.74;100163.59;6029307;28;20030;-66
2023/07/02 10:56:16;;;;;;;14.50;3.83;;;;;;;20.52;46.43;100153.00;6030988;28;20035;-66
2023/07/02 10:59:11;;;;;;;10.65;4.38;;;;;;;20.72;44.99;100156.28;6035300;28;20145;-66
2023/07/02 11:02:06;;;;;;;14.43;4.30;;;;;;;20.80;45.21;100158.69;6036116;28;20039;-66
2023/07/02 11:05:03;;;;;;;11.80;4.15;;;;;;;20.23;44.80;100167.16;6034928;28;20369;-66
2023/07/02 11:08:07;;;;;;;12.02;3.70;;;;;;;20.14;48.26;100178.19;6038110;28;20064;-66
2023/07/02 11:11:05;;;;;;;11.85;4.28;;;;;;;20.22;48.72;100179.78;6050060;28;20109;-65
2023/07/02 11:14:00;;;;;;;10.00;3.80;;;;;;;20.05;47.90;100158.00;6041752;28;20030;-66
2023/07/02 11:16:57;;;;;;;11.32;3.90;;;;;;;20.48;48.25;100173.34;6048190;28;20049;-65
2023/07/02 11:19:52;;;;;;;14.63;4.15;;;;;;;20.36;47.70;100140.94;6052790;28;20079;-66
2023/07/02 11:22:48;;;;;;;12.63;4.45;;;;;;;20.18;48.51;100165.13;6049138;28;20034;-66
2023/07/02 11:25:54;;;;;;;8.33;3.70;;;;;;;20.02;48.36;100173.78;6051652;28;20100;-66
2023/07/02 11:28:50;;;;;;;14.82;4.30;;;;;;;20.03;49.05;100181.63;6043958;28;20307;-66
2023/07/02 11:31:46;;;;;;;9.57;3.67;;;;;;;20.88;47.50;100158.38;6052221;28;20458;-66
2023/07/02 11:34:41;;;;;;;13.83;3.80;;;;;;;20.90;46.45;100167.03;6044168;28;20036;-66
2023/07/02 11:37:36;;;;;;;15.17;3.10;;;;;;;20.55;46.85;100190.25;6030543;28;20023;-66
2023/07/02 11:40:31;;;;;;;11.93;3.90;;;;;;;20.71;46.67;100178.88;6047426;28;20030;-66
2023/07/02 11:43:27;;;;;;;11.70;3.80;;;;;;;20.44;47.24;100194.53;6051650;28;20497;-65
2023/07/02 11:46:22;;;;;;;11.55;4.13;;;;;;;20.21;47.99;100188.94;6037981;28;20034;-66
2023/07/02 11:49:17;;;;;;;16.70;3.50;;;;;;;20.38;48.60;100178.44;6031546;28;20462;-66
2023/07/02 11:52:14;;;;;;;12.83;4.07;;;;;;;20.62;47.44;100194.56;6039013;28;20125;-66
2023/07/02 11:55:09;;;;;;;11.73;4.05;;;;;;;20.53;47.41;100165.41;6049390;28;20149;-66
2023/07/02 11:58:05;;;;;;;8.67;3.63;;;;;;;20.77;46.11;100183.38;6044445;28;20497;-66
2023/07/02 12:01:00;;;;;;;9.87;3.43;;;;;;;20.83;44.54;100176.28;6043838;28;20072;-66
2023/07/02 12:03:55;;;;;;;11.17;3.43;;;;;;;20.78;45.39;100174.25;6045929;28;20037;-66
2023/07/02 12:06:51;;;;;;;7.70;3.00;;;;;;;20.53;46.39;100173.50;6036590;28;20065;-66
2023/07/02 12:09:46;;;;;;;15.70;4.00;;;;;;;20.04;48.21;100182.44;6051135;28;20026;-66
2023/07/02 12:12:42;;;;;;;10.13;3.20;;;;;;;20.11;48.42;100184.03;6042622;28;20049;-66
2023/07/02 12:15:37;;;;;;;12.80;4.00;;;;;;;19.77;47.46;100181.84;6028816;28;20072;-66
2023/07/02 12:18:48;;;;;;;10.23;3.83;;;;;;;19.75;49.22;100212.69;6047147;28;20038;-66
2023/07/02 12:21:43;;;;;;;10.57;3.58;;;;;;;19.67;48.54;100191.44;6041734;28;20093;-66
2023/07/02 12:24:39;;;;;;;9.77;3.33;;;;;;;19.74;48.79;100203.81;6029882;28;20103;-66
2023/07/02 12:27:34;;;;;;;9.90;3.83;;;;;;;20.30;48.92;100192.19;6024004;28;20461;-66
2023/07/02 12:30:30;;;;;;;16.53;4.23;;;;;;;20.51;48.35;100205.25;6031394;28;20292;-66
2023/07/02 12:33:25;;;;;;;11.90;3.33;;;;;;;20.70;47.68;100188.03;6044481;28;20033;-66
2023/07/02 12:36:20;;;;;;;12.00;3.70;;;;;;;21.06;44.15;100195.28;6044011;28;20474;-66
2023/07/02 12:39:16;;;;;;;12.43;3.30;;;;;;;21.05;46.12;100197.16;6028229;28;20046;-66
2023/07/02 12:42:11;;;;;;;10.80;3.83;;;;;;;21.04;45.68;100190.09;6023292;28;20042;-66
2023/07/02 12:45:07;;;;;;;9.10;3.70;;;;;;;21.56;44.69;100191.28;6043203;28;20484;-66
2023/07/02 12:48:02;;;;;;;16.30;4.38;;;;;;;21.73;43.28;100203.09;6036328;28;20620;-66
2023/07/02 12:50:59;;;;;;;7.63;3.85;;;;;;;21.82;43.60;100187.38;6049544;28;20033;-67
2023/07/02 12:53:54;;;;;;;11.50;3.92;;;;;;;21.19;44.44;100206.75;6027568;28;20718;-66
2023/07/02 12:56:49;;;;;;;10.80;3.70;;;;;;;20.52;46.01;100212.28;6047151;28;20076;-66
2023/07/02 12:59:44;;;;;;;9.90;4.27;;;;;;;20.04;47.99;100214.75;6026388;28;20089;-66
2023/07/02 13:02:40;;;;;;;10.20;3.67;;;;;;;20.21;48.51;100221.25;6023826;28;20038;-66
2023/07/02 13:05:35;;;;;;;10.10;3.77;;;;;;;20.92;46.28;100218.06;6035871;28;20053;-65
2023/07/02 13:08:30;;;;;;;13.60;3.73;;;;;;;21.23;45.17;100201.72;6047022;28;20101;-65
2023/07/02 13:11:25;;;;;;;8.93;3.20;;;;;;;20.96;44.48;100220.06;6033731;28;20088;-65
2023/07/02 13:14:21;;;;;;;10.13;3.30;;;;;;;20.68;44.05;100222.47;6037307;28;20038;-66
2023/07/02 13:17:16;;;;;;;9.70;3.13;;;;;;;20.39;46.65;100215.91;6038757;28;20037;-66
2023/07/02 13:20:11;;;;;;;17.10;4.30;;;;;;;20.30;45.92;100224.50;6034061;28;20026;-66
2023/07/02 13:23:07;;;;;;;10.47;3.77;;;;;;;20.99;45.66;100234.97;6031480;28;20466;-66
2023/07/02 13:26:02;;;;;;;11.07;3.57;;;;;;;21.41;45.25;100238.63;6031990;28;20034;-66
2023/07/02 13:28:57;;;;;;;10.23;3.77;;;;;;;21.54;44.20;100233.06;6037838;28;20026;-67
2023/07/02 13:31:52;;;;;;;11.93;3.93;;;;;;;21.42;43.33;100227.59;6031471;28;20480;-67
2023/07/02 13:34:48;;;;;;;9.13;3.77;;;;;;;21.62;43.53;100213.84;6020860;28;20282;-67